Terminal Aerodrome Forecast
Issued by NWS

Home | Current Version | Previous Version | Text Only | Print | Product List | Glossary On
Versions: 1 2 3 4 5 6 7 8 9 10 11 12 13 14 15
000
FTAK31 PAJN 042300
TAFAKT
TAF
PAKT 042322Z 0500/0524 32007KT P6SM VCSH SCT060 OVC090
     FM050600 33006KT P6SM SCT060 BKN100
     FM051200 VRB03KT P6SM SCT100
     FM051900 33006KT P6SM FEW100
      AMD LTD TO CLD VIS AND WIND 0506/0515=

USA.gov is the U.S. government's official web portal to all federal, state and local government web resources and services.